Time;durP1;ratioP1;P1;durP2;ratioP2;P2;SDS_P1;SDS_P2;PMS_P1;PMS_P2;Temp;Humidity;BMP_temperature;BMP_pressure;BME280_temperature;BME280_humidity;BME280_pressure;Samples;Min_cycle;Max_cycle;Signal;HPM_P1;HPM_P2
2022/03/24 00:02:50;;;;;;;3.08;2.35;;;19.60;45.70;;;;;;6194128;28;20072;-67
2022/03/24 00:05:50;;;;;;;3.63;2.17;;;19.70;45.80;;;;;;6194312;28;20049;-67
2022/03/24 00:08:51;;;;;;;4.25;2.80;;;19.60;45.70;;;;;;6194256;28;20409;-67
2022/03/24 00:11:52;;;;;;;3.17;2.40;;;19.60;45.70;;;;;;6194048;28;20505;-67
2022/03/24 00:14:52;;;;;;;5.53;2.90;;;19.60;45.70;;;;;;6194428;28;20563;-67
2022/03/24 00:17:53;;;;;;;3.65;2.50;;;19.60;45.80;;;;;;6194185;28;20033;-67
2022/03/24 00:20:53;;;;;;;3.45;2.35;;;19.60;45.80;;;;;;6193943;28;20026;-67
2022/03/24 00:23:54;;;;;;;2.70;2.40;;;19.60;45.70;;;;;;6193551;28;20042;-67
2022/03/24 00:26:55;;;;;;;2.78;2.08;;;19.60;45.80;;;;;;6192992;28;20062;-67
2022/03/24 00:29:56;;;;;;;3.42;2.63;;;19.60;45.80;;;;;;6194101;28;20030;-67
2022/03/24 00:32:56;;;;;;;2.72;2.35;;;19.60;45.70;;;;;;6193421;28;20022;-67
2022/03/24 00:35:57;;;;;;;3.35;2.47;;;19.60;45.80;;;;;;6193766;28;20031;-67
2022/03/24 00:38:57;;;;;;;2.67;2.30;;;19.60;46.50;;;;;;6193639;28;20022;-67
2022/03/24 00:41:58;;;;;;;2.85;2.22;;;19.60;45.80;;;;;;6193822;28;20497;-67
2022/03/24 00:44:59;;;;;;;2.58;2.15;;;19.60;45.80;;;;;;6193585;28;20503;-67
2022/03/24 00:48:00;;;;;;;3.17;2.53;;;19.60;45.70;;;;;;6193828;28;20022;-67
2022/03/24 00:51:01;;;;;;;2.72;2.42;;;19.60;45.80;;;;;;6193723;28;20034;-67
2022/03/24 00:54:01;;;;;;;3.42;2.50;;;19.60;45.70;;;;;;6193339;28;20102;-67
2022/03/24 00:57:02;;;;;;;4.40;2.47;;;19.60;45.80;;;;;;6193576;28;20011;-67
2022/03/24 01:00:03;;;;;;;3.15;2.20;;;19.60;45.80;;;;;;6193500;28;20019;-67
2022/03/24 01:03:07;;;;;;;3.33;2.28;;;19.60;45.80;;;;;;6193698;28;20054;-67
2022/03/24 01:06:10;;;;;;;3.63;2.30;;;19.60;45.80;;;;;;6193863;28;20046;-67
2022/03/24 01:09:10;;;;;;;3.33;2.30;;;19.60;45.70;;;;;;6193127;28;20481;-66
2022/03/24 01:12:11;;;;;;;2.75;2.20;;;19.60;45.80;;;;;;6193350;28;20029;-67
2022/03/24 01:15:17;;;;;;;3.15;2.50;;;19.60;45.80;;;;;;6193252;28;20030;-67
2022/03/24 01:18:19;;;;;;;3.28;2.42;;;19.60;45.80;;;;;;6193218;28;20100;-67
2022/03/24 01:21:19;;;;;;;3.10;2.55;;;19.60;45.80;;;;;;6194264;28;20076;-67
2022/03/24 01:24:20;;;;;;;3.80;2.17;;;19.60;45.80;;;;;;6193385;28;20030;-67
2022/03/24 01:27:25;;;;;;;4.07;2.65;;;19.60;45.70;;;;;;6193177;28;20050;-67
2022/03/24 01:30:26;;;;;;;3.70;2.40;;;19.60;45.80;;;;;;6192890;28;20094;-67
2022/03/24 01:33:26;;;;;;;3.05;2.28;;;19.60;45.80;;;;;;6193069;28;20034;-67
2022/03/24 01:36:27;;;;;;;3.35;2.40;;;19.60;45.80;;;;;;6192939;28;20022;-67
2022/03/24 01:39:27;;;;;;;2.97;2.22;;;19.60;45.80;;;;;;6197561;28;20218;-67
2022/03/24 01:42:28;;;;;;;4.53;2.55;;;19.60;45.80;;;;;;6197396;28;20093;-67
2022/03/24 01:45:28;;;;;;;2.40;2.08;;;19.60;45.80;;;;;;6197841;28;20031;-67
2022/03/24 01:48:30;;;;;;;2.90;2.20;;;19.60;45.80;;;;;;6196883;28;20029;-67
2022/03/24 01:51:30;;;;;;;3.40;2.67;;;19.60;45.80;;;;;;6197080;28;20050;-67
2022/03/24 01:54:32;;;;;;;4.97;2.67;;;19.60;45.80;;;;;;6197183;28;20023;-67
2022/03/24 01:57:34;;;;;;;3.17;2.33;;;19.60;45.80;;;;;;6197083;28;20414;-67
2022/03/24 02:00:35;;;;;;;3.17;2.40;;;19.60;45.80;;;;;;6196687;28;20030;-67
2022/03/24 02:03:36;;;;;;;3.53;2.53;;;19.60;45.80;;;;;;6197029;28;20034;-67
2022/03/24 02:06:37;;;;;;;2.72;2.17;;;19.60;45.80;;;;;;6196750;28;20155;-67
2022/03/24 02:09:38;;;;;;;2.70;2.17;;;19.60;45.80;;;;;;6195375;28;20030;-67
2022/03/24 02:12:39;;;;;;;3.45;2.35;;;19.60;45.80;;;;;;6196732;28;20054;-66
2022/03/24 02:15:40;;;;;;;3.92;2.80;;;19.60;45.80;;;;;;6197204;28;20073;-67
2022/03/24 02:18:41;;;;;;;3.67;2.60;;;19.60;45.80;;;;;;6196706;28;20034;-67
2022/03/24 02:21:42;;;;;;;3.65;2.33;;;19.60;45.80;;;;;;6197014;28;20089;-67
2022/03/24 02:24:45;;;;;;;2.78;2.20;;;19.60;45.80;;;;;;6195841;28;20033;-67
2022/03/24 02:27:49;;;;;;;3.15;2.22;;;19.60;45.80;;;;;;6196595;28;20165;-67
2022/03/24 02:30:51;;;;;;;3.60;2.58;;;19.60;45.80;;;;;;6195803;28;20022;-67
2022/03/24 02:34:37;;;;;;;3.08;2.72;;;19.60;45.80;;;;;;6196146;28;20061;-67
2022/03/24 02:37:14;;;;;;;2.67;2.20;;;19.60;45.70;;;;;;6196281;28;20026;-67
2022/03/24 02:40:15;;;;;;;3.22;2.20;;;19.60;45.80;;;;;;6196118;28;20026;-67
2022/03/24 02:43:19;;;;;;;3.47;2.45;;;19.60;45.80;;;;;;6195967;28;20064;-67
2022/03/24 02:46:20;;;;;;;2.97;2.43;;;19.60;45.80;;;;;;6196064;28;20030;-67
2022/03/24 02:49:23;;;;;;;2.60;2.10;;;19.60;45.80;;;;;;6195791;28;20073;-66
2022/03/24 02:52:25;;;;;;;2.70;2.17;;;19.60;45.80;;;;;;6195661;28;20030;-67
2022/03/24 02:55:26;;;;;;;2.70;2.00;;;19.60;45.70;;;;;;6195566;28;20030;-67
2022/03/24 02:58:26;;;;;;;3.35;2.45;;;19.60;45.80;;;;;;6195643;28;20105;-67
2022/03/24 03:01:27;;;;;;;3.25;2.22;;;19.60;45.80;;;;;;6195503;28;20039;-67
2022/03/24 03:04:29;;;;;;;3.25;2.40;;;19.60;45.80;;;;;;6195751;28;20612;-67
2022/03/24 03:07:30;;;;;;;2.88;2.28;;;19.60;45.80;;;;;;6195379;28;20485;-67
2022/03/24 03:10:31;;;;;;;3.83;2.63;;;19.60;46.50;;;;;;6194161;28;20026;-67
2022/03/24 03:13:34;;;;;;;3.00;2.35;;;19.60;45.80;;;;;;6195061;28;20023;-67
2022/03/24 03:16:35;;;;;;;2.83;2.25;;;19.60;46.40;;;;;;6195973;28;20026;-67
2022/03/24 03:19:36;;;;;;;3.15;2.35;;;19.60;45.70;;;;;;6195648;28;20390;-67
2022/03/24 03:22:37;;;;;;;2.97;2.30;;;19.60;45.80;;;;;;6194917;28;20106;-67
2022/03/24 03:25:37;;;;;;;3.30;2.55;;;19.60;45.70;;;;;;6194699;28;20244;-67
2022/03/24 03:28:39;;;;;;;3.47;2.10;;;19.60;45.70;;;;;;6194672;28;20062;-67
2022/03/24 03:31:39;;;;;;;3.40;2.33;;;19.60;45.70;;;;;;6194833;28;20441;-67
2022/03/24 03:34:41;;;;;;;3.22;2.47;;;19.60;45.70;;;;;;6194909;28;20080;-67
2022/03/24 03:37:42;;;;;;;2.67;2.13;;;19.60;45.70;;;;;;6194980;28;20041;-67
2022/03/24 03:40:43;;;;;;;2.80;1.98;;;19.60;45.70;;;;;;6194758;28;20061;-67
2022/03/24 03:43:44;;;;;;;2.30;2.00;;;19.60;45.70;;;;;;6194622;28;20562;-67
2022/03/24 03:46:45;;;;;;;3.55;2.67;;;19.60;45.70;;;;;;6195039;28;20383;-67
2022/03/24 03:49:45;;;;;;;2.78;2.17;;;19.60;45.70;;;;;;6194741;28;20105;-67
2022/03/24 03:52:46;;;;;;;4.65;2.22;;;19.60;45.70;;;;;;6194457;28;20046;-67
2022/03/24 03:55:46;;;;;;;2.80;2.50;;;19.60;45.70;;;;;;6194359;28;20026;-67
2022/03/24 03:58:47;;;;;;;2.72;2.38;;;19.60;45.70;;;;;;6194512;28;20054;-67
2022/03/24 04:01:47;;;;;;;2.55;2.15;;;19.60;45.60;;;;;;6194256;28;20548;-67
2022/03/24 04:04:49;;;;;;;3.33;2.15;;;19.60;45.60;;;;;;6194510;28;20153;-67
2022/03/24 04:07:49;;;;;;;2.85;2.22;;;19.60;45.70;;;;;;6194531;28;20038;-67
2022/03/24 04:10:50;;;;;;;3.30;2.60;;;19.60;45.60;;;;;;6194069;28;20025;-67
2022/03/24 04:13:51;;;;;;;3.40;2.15;;;19.60;45.60;;;;;;6194029;28;20038;-67
2022/03/24 04:16:56;;;;;;;3.28;2.42;;;19.60;45.60;;;;;;6194190;28;20022;-67
2022/03/24 04:19:57;;;;;;;2.40;1.90;;;19.60;45.60;;;;;;6193772;28;20088;-67
2022/03/24 04:23:04;;;;;;;2.50;2.20;;;19.60;45.60;;;;;;6194025;28;20045;-67
2022/03/24 04:26:05;;;;;;;2.95;2.20;;;19.60;45.60;;;;;;6193642;28;20034;-67
2022/03/24 04:29:05;;;;;;;3.38;2.03;;;19.60;45.60;;;;;;6193898;28;20503;-67
2022/03/24 04:32:07;;;;;;;3.58;2.47;;;19.60;45.60;;;;;;6193738;28;20041;-67
2022/03/24 04:35:08;;;;;;;2.47;2.10;;;19.60;45.60;;;;;;6194110;28;20034;-67
2022/03/24 04:38:09;;;;;;;3.13;2.10;;;19.60;45.60;;;;;;6194073;28;20508;-67
2022/03/24 04:41:10;;;;;;;2.75;2.00;;;19.60;45.60;;;;;;6193759;28;20026;-67
2022/03/24 04:44:10;;;;;;;2.58;2.08;;;19.60;45.60;;;;;;6193976;28;20022;-67
2022/03/24 04:47:11;;;;;;;3.25;2.25;;;19.60;45.60;;;;;;6193626;28;20042;-67
2022/03/24 04:50:12;;;;;;;2.65;2.22;;;19.60;45.60;;;;;;6193821;28;20121;-66
2022/03/24 04:53:15;;;;;;;2.90;2.35;;;19.50;45.50;;;;;;6193357;28;20401;-67
2022/03/24 04:56:16;;;;;;;3.75;2.35;;;19.60;45.50;;;;;;6193628;28;20489;-67
2022/03/24 05:03:14;;;;;;;3.13;2.28;;;19.60;45.60;;;;;;6193846;28;20042;-67
2022/03/24 05:06:14;;;;;;;4.18;2.40;;;19.60;45.60;;;;;;6193536;28;20034;-67
2022/03/24 05:09:14;;;;;;;2.88;2.35;;;19.50;45.30;;;;;;6192465;28;20038;-67
2022/03/24 05:12:16;;;;;;;3.53;2.47;;;19.50;45.30;;;;;;6194523;28;20030;-67
2022/03/24 05:15:16;;;;;;;2.80;2.22;;;19.60;45.40;;;;;;6197934;28;20018;-67
2022/03/24 05:18:17;;;;;;;3.03;2.40;;;19.60;45.30;;;;;;6198173;28;20546;-67
2022/03/24 05:21:17;;;;;;;2.67;2.17;;;19.60;45.40;;;;;;6197295;28;20045;-68
2022/03/24 05:24:18;;;;;;;3.05;2.25;;;19.60;45.30;;;;;;6197646;28;20097;-67
2022/03/24 05:27:19;;;;;;;3.35;2.42;;;19.60;45.30;;;;;;6197744;28;20050;-67
2022/03/24 05:30:19;;;;;;;2.85;2.30;;;19.60;45.30;;;;;;6197680;28;20073;-67
2022/03/24 05:33:20;;;;;;;2.70;2.20;;;19.60;45.10;;;;;;6197510;28;20510;-67
2022/03/24 05:36:20;;;;;;;2.55;2.10;;;19.60;45.40;;;;;;6197834;28;20470;-67
2022/03/24 05:39:21;;;;;;;3.10;2.30;;;19.60;45.40;;;;;;6197521;28;20026;-67
2022/03/24 05:42:21;;;;;;;3.65;2.58;;;19.60;45.40;;;;;;6197465;28;20027;-67
2022/03/24 05:45:22;;;;;;;3.10;2.28;;;19.60;45.40;;;;;;6197263;28;20491;-67
2022/03/24 05:48:23;;;;;;;2.78;2.20;;;19.60;45.40;;;;;;6197384;28;20489;-67
2022/03/24 05:51:24;;;;;;;3.47;2.38;;;19.60;45.40;;;;;;6197769;28;20073;-66
2022/03/24 05:54:25;;;;;;;3.20;2.45;;;19.60;45.40;;;;;;6196853;28;20034;-67
2022/03/24 05:57:25;;;;;;;2.38;2.13;;;19.60;45.40;;;;;;6197397;28;20026;-67
2022/03/24 06:00:26;;;;;;;2.88;2.25;;;19.60;45.40;;;;;;6197049;28;20093;-67
2022/03/24 06:03:29;;;;;;;3.03;2.10;;;19.60;45.40;;;;;;6174917;28;20077;-67
2022/03/24 06:06:34;;;;;;;2.72;2.20;;;19.60;45.40;;;;;;6172763;28;20517;-67
2022/03/24 06:09:35;;;;;;;3.88;2.40;;;19.60;45.40;;;;;;6172559;28;20483;-67
2022/03/24 06:12:37;;;;;;;3.90;2.45;;;19.60;45.40;;;;;;6181106;28;20335;-67
2022/03/24 06:15:37;;;;;;;2.78;2.10;;;19.60;45.40;;;;;;6187004;28;20030;-67
2022/03/24 06:18:39;;;;;;;3.30;2.40;;;19.60;45.40;;;;;;6193088;28;20361;-67
2022/03/24 06:21:39;;;;;;;4.75;2.30;;;19.60;45.40;;;;;;6186650;28;20416;-67
2022/03/24 06:24:40;;;;;;;2.90;2.00;;;19.60;45.30;;;;;;6194349;28;20034;-67
2022/03/24 06:27:41;;;;;;;5.55;2.20;;;19.70;45.40;;;;;;6195388;28;20058;-67
2022/03/24 06:30:41;;;;;;;3.72;2.05;;;19.70;45.20;;;;;;6195008;28;20456;-67
2022/03/24 06:33:42;;;;;;;6.00;2.42;;;19.70;45.70;;;;;;6195249;28;20036;-67
2022/03/24 06:36:42;;;;;;;3.97;2.15;;;19.70;44.80;;;;;;6195118;28;20030;-67
2022/03/24 06:39:43;;;;;;;2.60;2.00;;;19.70;44.80;;;;;;6195736;28;20034;-67
2022/03/24 06:42:44;;;;;;;4.72;2.50;;;19.80;45.50;;;;;;6194802;28;20394;-67
2022/03/24 06:45:45;;;;;;;3.05;2.20;;;19.80;44.70;;;;;;6195563;28;20039;-67
2022/03/24 06:48:46;;;;;;;2.67;2.20;;;19.80;44.60;;;;;;6193973;28;20029;-67
2022/03/24 06:51:47;;;;;;;2.22;2.00;;;19.80;44.50;;;;;;6210059;28;20410;-67
2022/03/24 06:54:47;;;;;;;2.95;2.20;;;19.80;44.40;;;;;;6195246;28;20088;-67
2022/03/24 06:57:48;;;;;;;3.00;2.17;;;19.90;44.60;;;;;;6195176;28;20026;-67
2022/03/24 07:00:48;;;;;;;2.58;2.10;;;19.80;44.40;;;;;;6188361;28;20552;-67
2022/03/24 07:03:49;;;;;;;2.80;2.13;;;19.80;44.70;;;;;;6214090;28;20097;-67
2022/03/24 07:06:50;;;;;;;2.67;2.15;;;19.80;44.80;;;;;;6176557;28;20067;-67
2022/03/24 07:09:50;;;;;;;3.67;2.20;;;19.80;44.90;;;;;;6189146;28;20470;-67
2022/03/24 07:12:52;;;;;;;5.72;2.63;;;19.80;45.00;;;;;;6196098;28;20121;-67
2022/03/24 07:15:53;;;;;;;4.10;2.50;;;19.80;45.10;;;;;;6199282;28;20032;-67
2022/03/24 07:18:53;;;;;;;3.25;2.42;;;19.70;45.00;;;;;;6208487;28;20026;-67
2022/03/24 07:21:54;;;;;;;2.90;2.28;;;19.70;45.00;;;;;;6220712;28;20026;-67
2022/03/24 07:24:55;;;;;;;3.28;2.45;;;19.70;45.10;;;;;;6215356;28;20543;-67
2022/03/24 07:27:55;;;;;;;4.10;2.42;;;19.70;45.00;;;;;;6191534;28;20601;-67
2022/03/24 07:30:56;;;;;;;4.10;2.58;;;19.70;45.20;;;;;;6198925;28;20034;-67
2022/03/24 07:33:57;;;;;;;3.28;2.42;;;19.70;45.10;;;;;;6195734;28;20054;-67
2022/03/24 07:36:58;;;;;;;3.53;2.28;;;19.70;45.20;;;;;;6195599;28;21015;-67
2022/03/24 07:39:58;;;;;;;6.10;2.70;;;19.70;45.20;;;;;;6195879;28;20026;-67
2022/03/24 07:42:59;;;;;;;4.15;2.83;;;19.70;45.10;;;;;;6194706;28;20073;-67
2022/03/24 07:46:00;;;;;;;3.20;2.50;;;19.70;45.20;;;;;;6195614;28;20041;-67
2022/03/24 07:49:00;;;;;;;3.63;2.83;;;19.70;45.20;;;;;;6195680;28;20568;-67
2022/03/24 07:52:08;;;;;;;4.20;2.80;;;19.70;45.20;;;;;;6195525;28;20412;-67
2022/03/24 07:55:09;;;;;;;3.25;2.40;;;19.70;45.20;;;;;;6195244;28;20419;-68
2022/03/24 07:58:11;;;;;;;2.70;2.30;;;19.70;45.20;;;;;;6195402;28;20031;-67
2022/03/24 08:01:12;;;;;;;5.28;2.58;;;19.70;45.20;;;;;;6193992;28;20054;-67
2022/03/24 08:04:12;;;;;;;4.28;2.58;;;19.70;45.30;;;;;;6195022;28;20019;-67
2022/03/24 08:07:13;;;;;;;3.92;2.55;;;19.70;45.20;;;;;;6176882;28;20038;-67
2022/03/24 08:10:14;;;;;;;3.30;2.70;;;19.70;45.30;;;;;;6195275;28;20030;-67
2022/03/24 08:13:16;;;;;;;3.53;2.92;;;19.70;45.30;;;;;;6178971;28;20026;-68
2022/03/24 08:16:17;;;;;;;3.10;2.53;;;19.70;45.30;;;;;;6194634;28;20122;-67
2022/03/24 08:19:17;;;;;;;4.47;2.72;;;19.70;45.90;;;;;;6212028;28;20164;-67
2022/03/24 08:22:18;;;;;;;5.50;2.70;;;19.70;45.30;;;;;;6197030;28;20034;-67
2022/03/24 08:25:19;;;;;;;3.33;2.50;;;19.70;45.30;;;;;;6195201;28;20030;-67
2022/03/24 08:28:20;;;;;;;4.28;2.90;;;19.70;45.30;;;;;;6194726;28;20085;-68
2022/03/24 08:31:21;;;;;;;4.25;2.85;;;19.70;45.30;;;;;;6189938;28;20026;-67
2022/03/24 08:34:21;;;;;;;3.92;2.60;;;19.70;45.30;;;;;;6193557;28;20510;-68
2022/03/24 08:37:22;;;;;;;3.92;2.67;;;19.70;45.30;;;;;;6195051;28;20022;-68
2022/03/24 08:40:23;;;;;;;4.22;2.65;;;19.70;45.40;;;;;;6193770;28;20031;-67
2022/03/24 08:43:23;;;;;;;3.35;2.35;;;19.70;45.30;;;;;;6192232;28;20045;-67
2022/03/24 08:46:25;;;;;;;2.88;2.35;;;19.70;45.40;;;;;;6196181;28;20454;-67
2022/03/24 08:49:25;;;;;;;3.72;2.60;;;19.70;45.30;;;;;;6199791;28;20478;-68
2022/03/24 08:52:27;;;;;;;4.35;2.53;;;19.70;45.50;;;;;;6181290;28;20263;-68
2022/03/24 08:55:28;;;;;;;3.63;2.60;;;19.70;45.60;;;;;;6198235;28;20042;-68
2022/03/24 08:58:28;;;;;;;4.63;2.53;;;19.70;45.50;;;;;;6200332;28;20470;-68
2022/03/24 09:01:29;;;;;;;4.28;2.55;;;19.70;45.30;;;;;;6138672;28;20664;-68
2022/03/24 09:04:29;;;;;;;3.00;2.35;;;19.70;45.40;;;;;;6200546;28;20489;-68
2022/03/24 09:07:30;;;;;;;3.17;2.55;;;19.70;45.40;;;;;;6199440;28;20045;-68
2022/03/24 09:10:32;;;;;;;6.68;2.58;;;19.70;45.40;;;;;;6199818;28;20022;-68
2022/03/24 09:13:32;;;;;;;7.65;5.38;;;19.70;45.50;;;;;;6198956;28;20030;-68
2022/03/24 09:16:33;;;;;;;7.65;5.30;;;19.70;44.50;;;;;;6207629;28;20069;-68
2022/03/24 09:19:33;;;;;;;19.90;9.10;;;19.70;44.30;;;;;;6223416;28;20030;-68
2022/03/24 09:22:34;;;;;;;14.73;8.70;;;19.70;43.40;;;;;;6223297;28;20543;-67
2022/03/24 09:25:35;;;;;;;20.17;11.35;;;19.60;42.90;;;;;;6223656;28;20030;-68
2022/03/24 09:28:35;;;;;;;29.75;16.63;;;19.60;42.00;;;;;;6222350;28;20556;-68
2022/03/24 09:31:36;;;;;;;23.48;12.50;;;19.70;40.50;;;;;;6198947;28;20030;-68
2022/03/24 09:34:36;;;;;;;18.55;10.05;;;19.70;41.90;;;;;;6198730;28;20048;-68
2022/03/24 09:37:37;;;;;;;21.77;11.38;;;19.70;42.10;;;;;;6197853;28;20386;-69
2022/03/24 09:40:40;;;;;;;18.80;10.70;;;19.70;42.10;;;;;;6196298;28;20076;-68
2022/03/24 09:43:41;;;;;;;15.05;9.35;;;19.70;43.00;;;;;;6198008;28;20026;-68
2022/03/24 09:46:43;;;;;;;15.00;8.02;;;19.70;43.30;;;;;;6192585;28;20474;-68
2022/03/24 09:49:44;;;;;;;13.02;8.10;;;19.70;43.50;;;;;;6197055;28;20018;-68
2022/03/24 09:52:45;;;;;;;12.18;6.88;;;19.70;43.60;;;;;;6198809;28;20038;-68
2022/03/24 09:55:49;;;;;;;12.80;6.88;;;19.70;43.80;;;;;;6198437;28;20120;-68
2022/03/24 09:58:50;;;;;;;11.30;6.38;;;19.70;43.90;;;;;;6198293;28;20030;-68
2022/03/24 10:01:50;;;;;;;9.05;6.10;;;19.70;44.10;;;;;;6198415;28;20382;-68
2022/03/24 10:05:01;;;;;;;15.27;6.00;;;19.70;44.10;;;;;;6197714;28;20470;-68
2022/03/24 10:08:07;;;;;;;9.40;5.57;;;19.70;44.10;;;;;;6198913;28;20030;-68
2022/03/24 10:11:09;;;;;;;8.73;5.60;;;19.70;44.30;;;;;;6198059;28;20023;-69
2022/03/24 10:14:10;;;;;;;11.10;5.10;;;19.70;44.20;;;;;;6197395;28;20034;-68
2022/03/24 10:17:11;;;;;;;13.85;5.28;;;19.70;44.30;;;;;;6202825;28;20026;-68
2022/03/24 10:20:15;;;;;;;8.63;4.63;;;19.70;44.30;;;;;;6198712;28;20497;-68
2022/03/24 10:23:16;;;;;;;7.00;4.40;;;19.70;44.30;;;;;;6199652;28;20031;-68
2022/03/24 10:26:16;;;;;;;7.65;4.43;;;19.70;44.50;;;;;;6197768;28;20073;-69
2022/03/24 10:29:22;;;;;;;7.25;4.80;;;19.70;44.40;;;;;;6198429;28;20081;-68
2022/03/24 10:32:31;;;;;;;8.65;4.72;;;19.70;44.60;;;;;;6198547;28;20073;-68
2022/03/24 10:35:32;;;;;;;7.47;4.35;;;19.70;44.50;;;;;;6199248;28;20019;-68
2022/03/24 10:38:33;;;;;;;8.00;4.40;;;19.70;44.50;;;;;;6199189;28;20042;-68
2022/03/24 10:41:36;;;;;;;7.85;4.15;;;19.70;44.60;;;;;;6198854;28;20052;-68
2022/03/24 10:44:36;;;;;;;6.68;4.25;;;19.70;44.60;;;;;;6198983;28;20053;-68
2022/03/24 10:47:39;;;;;;;5.85;3.83;;;19.70;44.60;;;;;;6198820;28;20038;-67
2022/03/24 10:50:41;;;;;;;6.57;4.20;;;19.70;44.60;;;;;;6198494;28;20073;-68
2022/03/24 10:53:42;;;;;;;8.73;4.25;;;19.70;44.60;;;;;;6197378;28;20059;-68
2022/03/24 10:56:53;;;;;;;6.05;3.80;;;19.70;44.80;;;;;;6198848;28;20030;-68
2022/03/24 10:59:58;;;;;;;7.38;3.80;;;19.70;44.70;;;;;;6208053;28;20496;-67
2022/03/24 11:03:00;;;;;;;6.30;3.95;;;19.70;44.80;;;;;;6222874;28;20073;-67
2022/03/24 11:06:19;;;;;;;5.38;4.10;;;19.70;44.80;;;;;;6209380;28;20042;-67
2022/03/24 11:09:33;;;;;;;6.68;4.18;;;19.70;44.80;;;;;;6198725;28;20424;-68
2022/03/24 11:12:38;;;;;;;5.67;4.13;;;19.70;44.70;;;;;;6198375;28;20061;-68
2022/03/24 11:15:41;;;;;;;7.35;3.80;;;19.70;44.80;;;;;;6198637;28;20042;-68
2022/03/24 11:18:42;;;;;;;8.40;3.70;;;19.70;44.80;;;;;;6202320;28;20026;-68
2022/03/24 11:21:42;;;;;;;4.57;3.35;;;19.70;44.80;;;;;;6198325;28;20057;-68
2022/03/24 11:24:42;;;;;;;5.40;3.53;;;19.70;44.80;;;;;;6191114;28;20026;-68
2022/03/24 11:27:44;;;;;;;5.93;3.40;;;19.70;44.80;;;;;;6198147;28;20405;-67
2022/03/24 11:30:44;;;;;;;5.15;3.72;;;19.70;44.80;;;;;;6197233;28;20042;-67
2022/03/24 11:33:47;;;;;;;4.50;3.80;;;19.70;44.90;;;;;;6184847;28;20454;-67
2022/03/24 11:36:50;;;;;;;4.70;3.70;;;19.70;44.90;;;;;;6198142;28;20030;-68
2022/03/24 11:40:06;;;;;;;6.97;3.85;;;19.70;45.00;;;;;;6198639;28;20029;-68
2022/03/24 11:43:17;;;;;;;4.90;3.38;;;19.70;45.70;;;;;;6196598;28;20489;-68
2022/03/24 11:46:29;;;;;;;8.52;3.90;;;19.60;44.90;;;;;;6188238;28;20080;-68
2022/03/24 11:49:30;;;;;;;6.82;4.32;;;19.60;43.90;;;;;;6197782;28;20109;-68
2022/03/24 11:52:31;;;;;;;8.55;5.78;;;19.60;43.40;;;;;;6197468;28;20033;-68
2022/03/24 11:55:33;;;;;;;7.43;4.78;;;19.60;41.50;;;;;;6197360;28;20053;-68
2022/03/24 11:59:06;;;;;;;12.00;6.13;;;19.60;42.00;;;;;;6196625;28;20160;-68
2022/03/24 12:02:14;;;;;;;11.52;7.22;;;19.60;40.20;;;;;;6173350;28;20034;-68
2022/03/24 12:05:16;;;;;;;15.98;7.85;;;19.60;39.90;;;;;;6172936;28;20026;-68
2022/03/24 12:08:29;;;;;;;10.90;5.72;;;19.60;40.50;;;;;;6173693;28;20045;-68
2022/03/24 12:11:32;;;;;;;12.55;7.07;;;19.60;40.10;;;;;;6207962;28;20061;-68
2022/03/24 12:14:32;;;;;;;13.70;7.90;;;19.50;40.00;;;;;;6221491;28;20030;-68
2022/03/24 12:17:34;;;;;;;15.07;7.70;;;19.50;39.60;;;;;;6216226;28;20109;-68
2022/03/24 12:20:46;;;;;;;16.23;8.65;;;19.50;38.50;;;;;;6196511;28;20117;-68
2022/03/24 12:24:02;;;;;;;16.00;8.82;;;19.50;37.80;;;;;;6196969;28;20047;-68
2022/03/24 12:27:06;;;;;;;11.25;7.13;;;19.50;38.60;;;;;;6195202;28;20128;-68
2022/03/24 12:30:15;;;;;;;15.45;7.90;;;19.60;38.90;;;;;;6196936;28;20033;-68
2022/03/24 12:33:18;;;;;;;15.68;7.15;;;19.60;39.00;;;;;;6195305;28;20049;-68
2022/03/24 12:36:40;;;;;;;13.30;6.82;;;19.60;39.10;;;;;;6196430;28;20417;-68
2022/03/24 12:39:40;;;;;;;12.75;6.35;;;19.60;39.50;;;;;;6197086;28;20034;-68
2022/03/24 12:42:46;;;;;;;12.73;7.10;;;19.60;39.70;;;;;;6196261;28;20433;-68
2022/03/24 12:45:47;;;;;;;13.68;7.22;;;19.60;39.20;;;;;;6197081;28;20035;-68
2022/03/24 12:48:48;;;;;;;13.15;6.63;;;19.60;39.60;;;;;;6196900;28;20034;-68
2022/03/24 12:52:07;;;;;;;16.58;7.50;;;19.60;39.80;;;;;;6196611;28;20038;-68
2022/03/24 12:55:34;;;;;;;15.05;7.70;;;19.50;39.20;;;;;;6196734;28;20022;-67
2022/03/24 12:58:35;;;;;;;17.40;7.20;;;19.50;38.30;;;;;;6196514;28;20462;-68
2022/03/24 13:01:37;;;;;;;15.23;7.60;;;19.50;38.60;;;;;;6195599;28;20045;-68
2022/03/24 13:04:37;;;;;;;14.25;7.50;;;19.60;38.30;;;;;;6195938;28;20023;-68
2022/03/24 13:07:38;;;;;;;18.23;8.50;;;19.60;39.00;;;;;;6196560;28;20077;-68
2022/03/24 13:10:50;;;;;;;17.48;7.85;;;19.60;37.80;;;;;;6195778;28;20030;-68
2022/03/24 13:13:55;;;;;;;16.60;8.70;;;19.60;38.30;;;;;;6196342;28;20073;-68
2022/03/24 13:17:01;;;;;;;16.88;8.50;;;19.50;37.40;;;;;;6201263;28;20023;-68
2022/03/24 13:20:04;;;;;;;15.15;8.63;;;19.60;37.10;;;;;;6189143;28;20027;-69
2022/03/24 13:23:08;;;;;;;13.90;8.18;;;19.60;37.30;;;;;;6196747;28;20027;-68
2022/03/24 13:26:09;;;;;;;10.63;5.05;;;19.60;37.70;;;;;;6196019;28;20039;-68
2022/03/24 13:29:12;;;;;;;13.63;6.85;;;19.60;38.20;;;;;;6196290;28;20047;-68
2022/03/24 13:32:15;;;;;;;7.55;5.28;;;19.60;38.80;;;;;;6188488;28;20030;-68
2022/03/24 13:35:18;;;;;;;18.98;5.63;;;19.60;40.30;;;;;;6191366;28;20033;-68
2022/03/24 13:38:24;;;;;;;8.77;5.18;;;19.60;39.70;;;;;;6183598;28;20362;-67
2022/03/24 13:41:27;;;;;;;7.68;4.35;;;19.70;41.40;;;;;;6188155;28;20030;-67
2022/03/24 13:44:30;;;;;;;7.53;4.43;;;19.70;41.80;;;;;;6200927;28;20102;-67
2022/03/24 13:47:31;;;;;;;7.50;4.30;;;19.70;41.90;;;;;;6178892;28;20505;-68
2022/03/24 13:50:33;;;;;;;9.23;4.72;;;19.70;41.50;;;;;;6198880;28;20026;-68
2022/03/24 13:53:35;;;;;;;7.32;4.05;;;19.70;40.70;;;;;;6220696;28;20026;-68
2022/03/24 13:56:35;;;;;;;7.15;3.85;;;19.70;41.00;;;;;;6198366;28;20426;-68
2022/03/24 13:59:36;;;;;;;6.65;3.72;;;19.70;41.10;;;;;;6198677;28;20065;-69
2022/03/24 14:02:37;;;;;;;9.75;3.58;;;19.70;41.20;;;;;;6199227;28;20130;-68
2022/03/24 14:05:50;;;;;;;6.28;3.28;;;19.70;41.40;;;;;;6197759;28;20030;-68
2022/03/24 14:08:53;;;;;;;6.75;3.63;;;19.70;41.50;;;;;;6198124;28;20576;-68
2022/03/24 14:12:04;;;;;;;8.05;3.55;;;19.70;41.70;;;;;;6208313;28;20032;-68
2022/03/24 14:15:15;;;;;;;6.10;3.35;;;19.70;41.80;;;;;;6223927;28;20026;-68
2022/03/24 14:18:25;;;;;;;6.53;3.50;;;19.70;41.90;;;;;;6223263;28;20034;-68
2022/03/24 14:21:25;;;;;;;6.18;3.50;;;19.70;42.00;;;;;;6221731;28;20041;-67
2022/03/24 14:24:37;;;;;;;7.43;3.55;;;19.70;42.00;;;;;;6198604;28;20022;-67
2022/03/24 14:27:48;;;;;;;4.65;2.78;;;19.70;42.20;;;;;;6197858;28;20064;-68
2022/03/24 14:30:48;;;;;;;5.55;3.03;;;19.60;42.20;;;;;;6198210;28;20109;-68
2022/03/24 14:33:51;;;;;;;6.55;3.28;;;19.60;42.30;;;;;;6198791;28;20025;-68
2022/03/24 14:36:51;;;;;;;5.20;3.42;;;19.70;42.40;;;;;;6198537;28;20478;-68
2022/03/24 14:39:53;;;;;;;3.33;2.60;;;19.60;42.40;;;;;;6198233;28;20057;-68
2022/03/24 14:42:54;;;;;;;4.40;2.70;;;19.70;42.50;;;;;;6196335;28;20026;-68
2022/03/24 14:45:54;;;;;;;4.32;3.10;;;19.60;42.50;;;;;;6198296;28;20033;-68
2022/03/24 14:48:55;;;;;;;5.30;2.88;;;19.70;42.70;;;;;;6195273;28;20537;-68
2022/03/24 14:51:56;;;;;;;3.38;2.53;;;19.60;43.30;;;;;;6221101;28;20053;-68
2022/03/24 14:54:57;;;;;;;3.60;2.67;;;19.60;42.60;;;;;;6216647;28;20034;-67
2022/03/24 14:57:57;;;;;;;4.82;3.40;;;19.70;42.80;;;;;;6198063;28;20027;-68
2022/03/24 15:00:58;;;;;;;3.85;2.63;;;19.60;42.80;;;;;;6197692;28;20030;-67
2022/03/24 15:03:58;;;;;;;5.05;3.15;;;19.60;42.90;;;;;;6198213;28;20026;-68
2022/03/24 15:06:59;;;;;;;3.75;2.30;;;19.60;42.90;;;;;;6176245;28;20487;-68
2022/03/24 15:10:04;;;;;;;4.63;2.95;;;19.70;43.00;;;;;;6173970;28;20031;-68
2022/03/24 15:13:04;;;;;;;;;;;19.60;43.00;;;;;;6181872;28;20034;-68
2022/03/24 15:16:07;;;;;;;3.10;2.42;;;19.60;43.00;;;;;;6197630;28;19906;-68
2022/03/24 15:19:08;;;;;;;3.47;2.55;;;19.60;43.00;;;;;;6197500;28;20073;-68
2022/03/24 15:22:09;;;;;;;4.13;2.85;;;19.60;43.10;;;;;;6197677;28;20484;-67
2022/03/24 15:25:10;;;;;;;3.88;2.42;;;19.60;43.10;;;;;;6213475;28;20054;-68
2022/03/24 15:28:10;;;;;;;3.13;2.38;;;19.60;43.10;;;;;;6221354;28;20080;-68
2022/03/24 15:31:11;;;;;;;3.65;2.75;;;19.60;43.20;;;;;;6199781;28;20050;-68
2022/03/24 15:34:12;;;;;;;3.47;2.38;;;19.70;43.30;;;;;;6197258;28;20065;-67
2022/03/24 15:37:13;;;;;;;3.40;2.50;;;19.60;43.20;;;;;;6197357;28;20097;-67
2022/03/24 15:40:15;;;;;;;3.00;2.40;;;19.60;43.30;;;;;;6196758;28;20026;-68
2022/03/24 15:43:16;;;;;;;3.88;2.28;;;19.70;43.40;;;;;;6196832;28;20026;-68
2022/03/24 15:46:17;;;;;;;3.47;2.45;;;19.60;43.30;;;;;;6196640;28;20096;-68
2022/03/24 15:49:18;;;;;;;3.08;2.40;;;19.60;43.30;;;;;;6202852;28;20033;-68
2022/03/24 15:52:19;;;;;;;4.03;2.45;;;19.60;43.40;;;;;;6221472;28;20030;-68